Angler Guide Weather for Hart Island -
Hart Island, Nova Scotia Current Weather Conditions
Enter your "Place, State", US Zip Code or ICAO:  
Forecast Information Radar Information
Hart Island, Nova Scotia, Canada  Lat: 45.33N, Lon: 60.97W
ICAO Used: CWSA
Current Conditions
Updated:
Sun & Moon Information:
Temp: N/A
Humidity: N/A
Wind Speed: N/A
Barometer: N/A
Dewpoint: N/A
Heat Index: N/A
Wind Chill: N/A
Civil Twilight: 6:58 AM AST
Moonrise: 1:41 AM AST Moon Phase:
Waning Crescent Moon
Waning Crescent Moon
Moonset: 1:42 PM AST
Sunrise: 7:32 AM AST
Sunset: 4:20 PM AST
Civil Twilight: 4:54 PM AST
Forecast for Hart Island, NS:
(Forecast based on TAF for )
0339 PM AST MON NOV 06 2006
  
AFTERNOONEVENING
PARTLY CLOUDYPARTLY CLOUDY
Partly
Cloudy
Partly
Cloudy
TAF based forecast:
Dated: 0339 PM AST MON NOV 06 2006
Afternoon...Partly cloudy with winds from the west at 6 mph. Then becoming partly cloudy with winds from the north north east at 8 mph.
Evening...Partly cloudy with winds from the north north east at 8 mph.
Original Encoded TAF:
Dated: 0339 PM AST MON NOV 06 2006
2006/11/06 19:39
CWSA 061939Z 062022 28005KT P6SM SCT030 BECMG 2021 02007KT=




Powered by Angler Guide.com
Copyright 2007, all rights reserved.